Al Hamla — V7MX9 — position and weather

sailwx.info

Track history (hours):
 
Tides and Currents Weather Stations Pressure Air Temp Water Temp Dewpoint Dewpoint Depression Visibility Wind Speed Wind Dir Waves Ship Positions

Al Hamla

Last reported at 2014-Oct-30 01:14 UTC. Time now 2014-Nov-27 10:31 UTC.
Position N 01°11' E 103°40'.
Warning: this ship's position is 28 days out of date.

Length 340 m; draft 9.6 m.

Type: Other ship. MMSI: 538002922.

Date/timePositionNaut miles runAvg speedWind from/ knotsBaromVisibWave heightAir tempDewpointWater temp
2014-Oct-30 01:14N 01°11' E 103°40'1 0.1
2014-Oct-29 15:31N 01°12' E 103°41'0 0.1
2014-Oct-29 14:22N 01°12' E 103°41'0 0.0
2014-Oct-29 13:32N 01°12' E 103°41'0 0.0
2014-Oct-29 12:29N 01°12' E 103°41'0 0.0
2014-Oct-29 10:33N 01°12' E 103°41'0 0.0
2014-Oct-29 05:33N 01°12' E 103°41'1 0.1
2014-Oct-29 01:15N 01°11' E 103°40'5 6.7
2014-Oct-29 00:27N 01°09' E 103°45'4 4.4
2014-Oct-28 23:33N 01°11' E 103°49'7 6.5
2014-Oct-28 22:33N 01°14' E 103°55'7 7.3
2014-Oct-28 21:33N 01°16' E 104°02'8 8.3
2014-Oct-28 20:33N 01°18' E 104°10'  
2014-Oct-21 06:33N 35°00' E 139°33'1514.9
2014-Oct-21 05:33N 35°11' E 139°46'1110.8
2014-Oct-21 04:34N 35°21' E 139°42'7 6.9
2014-Oct-21 03:34N 35°28' E 139°44'0 0.0
2014-Oct-21 02:31N 35°28' E 139°44'0 0.0
2014-Oct-21 01:31N 35°28' E 139°44'0 0.0
2014-Oct-21 00:32N 35°28' E 139°44'0 0.0
2014-Oct-20 23:32N 35°28' E 139°44'0 0.0
2014-Oct-20 22:30N 35°28' E 139°44'0 0.0
2014-Oct-20 21:31N 35°28' E 139°44'0 0.0
2014-Oct-20 20:31N 35°28' E 139°44'0 0.0
2014-Oct-20 19:32N 35°28' E 139°44'0 0.0
2014-Oct-20 18:33N 35°28' E 139°44'0 0.0
2014-Oct-20 17:33N 35°28' E 139°44'0 0.0
2014-Oct-20 16:31N 35°28' E 139°44'0 0.0
2014-Oct-20 15:32N 35°28' E 139°44'0 0.0
2014-Oct-20 14:32N 35°28' E 139°44'0 0.0
2014-Oct-20 13:33N 35°28' E 139°44'0 0.0
2014-Oct-20 12:33N 35°28' E 139°44'0 0.0
2014-Oct-20 11:31N 35°28' E 139°44'0 0.0
2014-Oct-20 10:32N 35°28' E 139°44'0 0.0
2014-Oct-20 09:32N 35°28' E 139°44'0 0.0
2014-Oct-20 08:33N 35°28' E 139°44'0 0.0
2014-Oct-20 07:34N 35°28' E 139°44'0 0.0
2014-Oct-20 06:28N 35°28' E 139°44'0 0.0
2014-Oct-20 05:32N 35°28' E 139°44'0 0.0
2014-Oct-20 04:32N 35°28' E 139°44'0 0.0
2014-Oct-20 03:33N 35°28' E 139°44'0 0.0
2014-Oct-20 02:31N 35°28' E 139°44'0 0.0
2014-Oct-20 01:33N 35°28' E 139°44'  
Track history (hours):
 
Tides and Currents Weather Stations Pressure Air Temp Water Temp Dewpoint Dewpoint Depression Visibility Wind Speed Wind Dir Waves Ship Positions

Al Hamla

Last reported at 2014-Oct-30 01:14 UTC. Time now 2014-Nov-27 10:31 UTC.
Position N 01°11' E 103°40'.
Warning: this ship's position is 28 days out of date.

Length 340 m; draft 9.6 m.

Type: Other ship. MMSI: 538002922.

Date/timePositionNaut miles runAvg speedWind from/ knotsBaromVisibWave heightAir tempDewpointWater temp
2014-Oct-30 01:14N 01°11' E 103°40'1 0.1
2014-Oct-29 15:31N 01°12' E 103°41'0 0.1
2014-Oct-29 14:22N 01°12' E 103°41'0 0.0
2014-Oct-29 13:32N 01°12' E 103°41'0 0.0
2014-Oct-29 12:29N 01°12' E 103°41'0 0.0
2014-Oct-29 10:33N 01°12' E 103°41'0 0.0
2014-Oct-29 05:33N 01°12' E 103°41'1 0.1
2014-Oct-29 01:15N 01°11' E 103°40'5 6.7
2014-Oct-29 00:27N 01°09' E 103°45'4 4.4
2014-Oct-28 23:33N 01°11' E 103°49'7 6.5
2014-Oct-28 22:33N 01°14' E 103°55'7 7.3
2014-Oct-28 21:33N 01°16' E 104°02'8 8.3
2014-Oct-28 20:33N 01°18' E 104°10'  
2014-Oct-21 06:33N 35°00' E 139°33'1514.9
2014-Oct-21 05:33N 35°11' E 139°46'1110.8
2014-Oct-21 04:34N 35°21' E 139°42'7 6.9
2014-Oct-21 03:34N 35°28' E 139°44'0 0.0
2014-Oct-21 02:31N 35°28' E 139°44'0 0.0
2014-Oct-21 01:31N 35°28' E 139°44'0 0.0
2014-Oct-21 00:32N 35°28' E 139°44'0 0.0
2014-Oct-20 23:32N 35°28' E 139°44'0 0.0
2014-Oct-20 22:30N 35°28' E 139°44'0 0.0
2014-Oct-20 21:31N 35°28' E 139°44'0 0.0
2014-Oct-20 20:31N 35°28' E 139°44'0 0.0
2014-Oct-20 19:32N 35°28' E 139°44'0 0.0
2014-Oct-20 18:33N 35°28' E 139°44'0 0.0
2014-Oct-20 17:33N 35°28' E 139°44'0 0.0
2014-Oct-20 16:31N 35°28' E 139°44'0 0.0
2014-Oct-20 15:32N 35°28' E 139°44'0 0.0
2014-Oct-20 14:32N 35°28' E 139°44'0 0.0
2014-Oct-20 13:33N 35°28' E 139°44'0 0.0
2014-Oct-20 12:33N 35°28' E 139°44'0 0.0
2014-Oct-20 11:31N 35°28' E 139°44'0 0.0
2014-Oct-20 10:32N 35°28' E 139°44'0 0.0
2014-Oct-20 09:32N 35°28' E 139°44'0 0.0
2014-Oct-20 08:33N 35°28' E 139°44'0 0.0
2014-Oct-20 07:34N 35°28' E 139°44'0 0.0
2014-Oct-20 06:28N 35°28' E 139°44'0 0.0
2014-Oct-20 05:32N 35°28' E 139°44'0 0.0
2014-Oct-20 04:32N 35°28' E 139°44'0 0.0
2014-Oct-20 03:33N 35°28' E 139°44'0 0.0
2014-Oct-20 02:31N 35°28' E 139°44'0 0.0
2014-Oct-20 01:33N 35°28' E 139°44'  

Dump ship's entire track history